Time;durP1;ratioP1;P1;durP2;ratioP2;P2;SDS_P1;SDS_P2;PMS_P1;PMS_P2;Temp;Humidity;BMP_temperature;BMP_pressure;BME280_temperature;BME280_humidity;BME280_pressure;Samples;Min_cycle;Max_cycle;Signal;HPM_P1;HPM_P2
2022/06/17 07:02:11;;;;;;;5.72;3.22;;;;;;;;;;12922167;22;1604689;-82
2022/06/17 07:07:12;;;;;;;5.90;2.60;;;;;;;;;;12888688;23;20016;-84
2022/06/17 07:12:13;;;;;;;5.45;3.20;;;;;;;;;;12891030;23;20364;-82
2022/06/17 07:17:14;;;;;;;4.68;2.20;;;;;;;;;;12872697;23;20011;-79
2022/06/17 07:22:15;;;;;;;4.60;2.10;;;;;;;;;;12862580;23;20016;-80
2022/06/17 07:27:16;;;;;;;7.15;2.45;;;;;;;;;;12861634;23;20005;-80
2022/06/17 07:32:17;;;;;;;6.63;2.63;;;;;;;;;;12849080;23;20005;-81
2022/06/17 07:42:38;;;;;;;18.70;14.02;;;;;;;;;;12874599;23;20012;-80
2022/06/17 07:47:42;;;;;;;5.65;3.13;;;;;;;;;;12846518;23;20084;-81
2022/06/17 07:52:43;;;;;;;4.05;3.47;;;;;;;;;;12847774;23;20020;-80
2022/06/17 07:57:44;;;;;;;3.97;2.58;;;;;;;;;;12873327;23;20084;-80
2022/06/17 08:02:45;;;;;;;5.93;3.17;;;;;;;;;;12808652;23;20023;-80
2022/06/17 08:07:47;;;;;;;4.18;2.58;;;;;;;;;;12785857;23;20005;-81
2022/06/17 08:12:52;;;;;;;7.40;2.45;;;;;;;;;;12788609;23;19997;-85
2022/06/17 08:17:53;;;;;;;6.22;2.30;;;;;;;;;;12786297;23;20107;-81
2022/06/17 08:22:56;;;;;;;4.65;2.63;;;;;;;;;;12783808;23;20037;-79
2022/06/17 08:27:58;;;;;;;6.03;4.10;;;;;;;;;;12783593;23;20015;-79
2022/06/17 08:33:00;;;;;;;3.50;2.60;;;;;;;;;;12783154;23;20021;-82
2022/06/17 08:38:03;;;;;;;4.10;2.58;;;;;;;;;;12783428;23;20005;-80
2022/06/17 08:43:04;;;;;;;6.85;3.05;;;;;;;;;;12786712;23;20001;-81
2022/06/17 08:48:20;;;;;;;6.00;3.22;;;;;;;;;;12815072;23;20016;-81
2022/06/17 08:53:44;;;;;;;5.18;2.83;;;;;;;;;;12789897;23;20024;-84
2022/06/17 08:58:54;;;;;;;4.05;3.17;;;;;;;;;;12814226;23;20009;-81
2022/06/17 09:04:12;;;;;;;6.72;2.78;;;;;;;;;;12786942;23;20044;-82
2022/06/17 09:09:22;;;;;;;4.38;2.55;;;;;;;;;;12810618;23;19993;-80
2022/06/17 09:14:42;;;;;;;3.92;2.40;;;;;;;;;;12789265;23;20005;-79
2022/06/17 09:19:52;;;;;;;6.38;2.50;;;;;;;;;;12786917;23;20016;-84
2022/06/17 09:24:55;;;;;;;3.90;2.33;;;;;;;;;;12784711;23;20011;-81
2022/06/17 09:29:59;;;;;;;3.38;2.30;;;;;;;;;;12784366;23;20009;-82
2022/06/17 09:35:39;;;;;;;3.60;2.80;;;;;;;;;;12809060;23;20008;-83
2022/06/17 09:41:03;;;;;;;4.15;2.50;;;;;;;;;;12785079;23;20012;-82
2022/06/17 09:46:19;;;;;;;6.35;3.58;;;;;;;;;;12812916;23;20005;-83
2022/06/17 09:51:35;;;;;;;3.42;2.20;;;;;;;;;;12784588;23;20009;-82
2022/06/17 09:56:36;;;;;;;4.35;2.60;;;;;;;;;;12808653;23;20004;-80
2022/06/17 10:01:37;;;;;;;3.97;1.92;;;;;;;;;;12785216;23;20031;-80
2022/06/17 10:07:02;;;;;;;2.97;2.20;;;;;;;;;;12782819;23;20088;-81
2022/06/17 10:12:09;;;;;;;4.97;2.15;;;;;;;;;;12773365;23;20006;-82
2022/06/17 10:22:51;;;;;;;4.25;2.42;;;;;;;;;;12811962;23;20013;-80
2022/06/17 10:27:59;;;;;;;5.07;2.28;;;;;;;;;;12784535;23;20005;-80
2022/06/17 10:33:00;;;;;;;2.50;2.00;;;;;;;;;;12800280;23;20001;-81
2022/06/17 10:38:08;;;;;;;3.20;2.38;;;;;;;;;;12783621;23;20012;-82
2022/06/17 10:43:20;;;;;;;2.97;2.42;;;;;;;;;;12783666;23;20009;-80
2022/06/17 10:48:30;;;;;;;3.42;2.10;;;;;;;;;;12810870;23;20001;-81
2022/06/17 10:54:12;;;;;;;2.97;1.60;;;;;;;;;;12818048;23;20007;-81
2022/06/17 10:59:57;;;;;;;3.33;1.95;;;;;;;;;;12679471;23;20752;-80
2022/06/17 11:05:39;;;;;;;2.95;1.70;;;;;;;;;;12768664;23;20016;-79
2022/06/17 11:10:42;;;;;;;2.63;1.85;;;;;;;;;;12860241;23;20004;-80
2022/06/17 11:15:48;;;;;;;2.63;1.90;;;;;;;;;;12911657;22;20074;-83
2022/06/17 11:21:10;;;;;;;4.15;2.22;;;;;;;;;;12969503;22;20014;-79
2022/06/17 11:26:16;;;;;;;3.78;1.90;;;;;;;;;;12929113;23;20415;-79
2022/06/17 11:31:20;;;;;;;4.75;3.10;;;;;;;;;;12906972;23;20501;-79
2022/06/17 11:36:29;;;;;;;3.58;2.00;;;;;;;;;;12903215;23;20058;-78
2022/06/17 11:41:31;;;;;;;3.13;2.70;;;;;;;;;;12903514;23;20005;-80
2022/06/17 11:46:34;;;;;;;4.75;2.50;;;;;;;;;;12930062;22;20000;-79
2022/06/17 11:51:37;;;;;;;3.88;3.00;;;;;;;;;;12902296;23;20065;-78
2022/06/17 11:56:40;;;;;;;3.83;2.10;;;;;;;;;;12902033;23;20004;-78
2022/06/17 12:01:42;;;;;;;3.53;2.75;;;;;;;;;;12929681;23;20000;-78
2022/06/17 12:06:45;;;;;;;2.40;1.65;;;;;;;;;;12901629;23;20012;-78
2022/06/17 12:11:51;;;;;;;3.03;2.00;;;;;;;;;;12901552;23;20011;-78
2022/06/17 12:16:53;;;;;;;2.40;1.70;;;;;;;;;;12902423;23;20039;-78
2022/06/17 12:21:57;;;;;;;2.03;1.70;;;;;;;;;;12902473;23;20027;-77
2022/06/17 12:27:10;;;;;;;3.08;1.63;;;;;;;;;;12928298;22;20005;-78
2022/06/17 12:32:30;;;;;;;4.38;2.05;;;;;;;;;;12901280;23;20066;-77
2022/06/17 12:38:04;;;;;;;2.88;1.65;;;;;;;;;;12899225;23;20004;-77
2022/06/17 12:43:15;;;;;;;4.05;2.20;;;;;;;;;;12819283;22;20049;-77
2022/06/17 12:48:40;;;;;;;2.83;1.70;;;;;;;;;;12900812;23;20087;-79
2022/06/17 12:54:00;;;;;;;2.10;1.50;;;;;;;;;;12905254;22;20031;-79
2022/06/17 12:59:10;;;;;;;2.75;1.70;;;;;;;;;;12907605;23;20056;-80
2022/06/17 13:04:17;;;;;;;1.73;1.40;;;;;;;;;;12930502;22;20054;-79
2022/06/17 13:09:24;;;;;;;6.47;2.33;;;;;;;;;;12930243;23;20424;-79
2022/06/17 13:14:38;;;;;;;2.95;2.20;;;;;;;;;;12930669;22;20015;-79
2022/06/17 13:19:45;;;;;;;2.40;1.70;;;;;;;;;;12902933;23;20008;-79
2022/06/17 13:24:57;;;;;;;3.03;1.58;;;;;;;;;;12902132;22;20388;-79
2022/06/17 13:30:08;;;;;;;3.08;1.55;;;;;;;;;;12901462;23;20053;-79
2022/06/17 13:35:20;;;;;;;1.85;1.52;;;;;;;;;;12902416;22;20004;-79
2022/06/17 13:40:30;;;;;;;3.80;1.65;;;;;;;;;;12904987;23;20011;-81
2022/06/17 13:45:37;;;;;;;2.92;1.30;;;;;;;;;;12930258;22;20007;-79
2022/06/17 13:50:57;;;;;;;1.80;1.45;;;;;;;;;;12901673;23;20012;-79
2022/06/17 13:56:01;;;;;;;2.97;1.40;;;;;;;;;;12907852;22;20514;-80
2022/06/17 14:01:21;;;;;;;4.70;1.85;;;;;;;;;;12929280;23;20309;-79
2022/06/17 14:06:24;;;;;;;3.53;2.10;;;;;;;;;;12903298;23;20082;-79
2022/06/17 14:11:37;;;;;;;6.97;5.57;;;;;;;;;;12929049;23;20028;-79
2022/06/17 14:16:38;;;;;;;3.88;2.03;;;;;;;;;;12900572;23;20023;-79
2022/06/17 14:21:47;;;;;;;6.40;2.00;;;;;;;;;;12905606;23;20028;-80
2022/06/17 14:26:50;;;;;;;4.25;1.90;;;;;;;;;;12906127;23;20467;-80
2022/06/17 14:31:53;;;;;;;2.88;1.67;;;;;;;;;;12905062;23;20011;-79
2022/06/17 14:36:55;;;;;;;2.78;1.75;;;;;;;;;;12905004;23;20480;-78
2022/06/17 14:42:15;;;;;;;4.28;1.90;;;;;;;;;;12904970;23;20009;-80
2022/06/17 14:47:28;;;;;;;4.18;1.60;;;;;;;;;;12904416;23;20008;-80
2022/06/17 14:52:34;;;;;;;2.22;1.70;;;;;;;;;;12905632;23;20004;-80
2022/06/17 14:57:46;;;;;;;3.05;1.85;;;;;;;;;;12906150;23;20431;-81
2022/06/17 15:02:49;;;;;;;4.72;2.75;;;;;;;;;;12907055;23;20558;-79
2022/06/17 15:07:53;;;;;;;5.43;3.80;;;;;;;;;;12903638;23;20007;-79
2022/06/17 15:12:59;;;;;;;4.40;1.90;;;;;;;;;;12904026;23;19996;-80
2022/06/17 15:18:03;;;;;;;5.05;3.17;;;;;;;;;;12932126;22;20012;-79
2022/06/17 15:23:27;;;;;;;2.58;1.90;;;;;;;;;;12930452;23;20406;-79
2022/06/17 15:28:37;;;;;;;3.97;1.90;;;;;;;;;;12910307;23;20490;-79
2022/06/17 15:33:39;;;;;;;3.20;2.08;;;;;;;;;;12902754;22;20083;-79
2022/06/17 15:38:49;;;;;;;3.15;1.50;;;;;;;;;;12903317;23;20004;-80
2022/06/17 15:44:02;;;;;;;4.57;2.97;;;;;;;;;;12902404;22;20005;-80
2022/06/17 15:49:24;;;;;;;2.38;1.90;;;;;;;;;;12930950;23;20000;-79
2022/06/17 15:54:27;;;;;;;2.88;1.73;;;;;;;;;;12902379;22;20046;-78
2022/06/17 15:59:30;;;;;;;2.92;1.70;;;;;;;;;;12928677;23;20436;-77
2022/06/17 16:04:31;;;;;;;2.15;1.58;;;;;;;;;;12901433;22;20011;-79
2022/06/17 16:09:32;;;;;;;2.42;1.77;;;;;;;;;;12903206;23;20012;-79
2022/06/17 16:14:35;;;;;;;4.30;2.20;;;;;;;;;;12902686;22;20004;-79
2022/06/17 16:19:53;;;;;;;2.75;1.40;;;;;;;;;;12928647;23;20375;-77
2022/06/17 16:24:56;;;;;;;5.60;1.70;;;;;;;;;;12941160;22;20011;-75
2022/06/17 16:30:13;;;;;;;5.43;4.45;;;;;;;;;;12976349;23;20047;-80
2022/06/17 16:35:24;;;;;;;3.42;1.80;;;;;;;;;;12955102;22;20043;-81
2022/06/17 16:46:04;;;;;;;3.72;2.05;;;;;;;;;;12934323;22;20108;-79
2022/06/17 16:51:06;;;;;;;5.38;2.70;;;;;;;;;;12906789;23;20074;-81
2022/06/17 16:56:08;;;;;;;3.65;2.20;;;;;;;;;;12905467;23;20361;-81
2022/06/17 17:01:10;;;;;;;5.22;2.72;;;;;;;;;;12934725;23;20459;-80
2022/06/17 17:06:11;;;;;;;2.03;1.58;;;;;;;;;;12906541;23;20004;-81
2022/06/17 17:11:12;;;;;;;3.35;1.70;;;;;;;;;;12903531;23;20008;-81
